Irving Johnson — WDB3153 — position and weather

sailwx.info

Track history (hours):
 
Tides and Currents Weather Stations Pressure Air Temp Water Temp Dewpoint Dewpoint Depression Visibility Wind Speed Wind Dir Waves Ship Positions

Irving Johnson (United States)

Ship's website: http://www.lamitopsail.org/

Owner: Los Angeles Maritime Institute, San Pedro, CA. More information available from US FCC via Universal Licensing System and Coast Guard Vessel Documentation Center.

Last reported at 2017-May-24 20:16 UTC. Time now 2017-May-28 22:18 UTC.
Position N 33°44' W 118°17'.

Type: Ship. MMSI: 369725000.

Date/timePositionNaut miles runAvg speedWind from/ knotsBaromVisibWave heightAir tempDewpointWater temp
2017-May-24 20:16N 33°44' W 118°17'0 0.0
2017-May-24 19:58N 33°44' W 118°17'0 0.0
2017-May-24 19:21N 33°44' W 118°17'0 0.0
2017-May-24 18:57N 33°44' W 118°17'0 0.0
2017-May-24 18:27N 33°44' W 118°17'0 0.7
2017-May-24 18:01N 33°44' W 118°16'2 4.7
2017-May-24 17:31N 33°42' W 118°15'4 7.0
2017-May-24 17:00N 33°38' W 118°16'2 4.8
2017-May-24 16:30N 33°36' W 118°17'4 6.6
2017-May-24 15:56N 33°32' W 118°18'3 6.3
2017-May-24 15:31N 33°30' W 118°19'1 2.7
2017-May-24 15:00N 33°29' W 118°20'1 2.7
2017-May-24 14:30N 33°27' W 118°21'4 3.9
2017-May-24 13:28N 33°24' W 118°22'0 0.0
2017-May-24 12:58N 33°24' W 118°22'0 0.0
2017-May-24 12:22N 33°24' W 118°22'0 0.1
2017-May-24 11:47N 33°24' W 118°22'0 0.2
2017-May-24 11:29N 33°24' W 118°22'0 0.1
2017-May-24 10:59N 33°24' W 118°22'0 0.1
2017-May-24 10:23N 33°24' W 118°22'0 0.0
2017-May-24 09:53N 33°24' W 118°22'0 0.0
2017-May-24 09:25N 33°24' W 118°22'0 0.0
2017-May-24 08:55N 33°24' W 118°22'0 0.0
2017-May-24 08:25N 33°24' W 118°22'0 0.0
2017-May-24 07:49N 33°24' W 118°22'0 0.1
2017-May-24 06:57N 33°24' W 118°22'0 0.0
2017-May-24 06:10N 33°24' W 118°22'0 0.0
2017-May-24 05:52N 33°24' W 118°22'0 0.0
2017-May-24 05:24N 33°24' W 118°22'0 0.0
2017-May-24 04:54N 33°24' W 118°22'0 0.0
2017-May-24 04:30N 33°24' W 118°22'0 0.0
2017-May-24 04:00N 33°24' W 118°22'0 0.0
2017-May-24 01:04N 33°24' W 118°22'0 0.0
2017-May-24 00:44N 33°24' W 118°22'0 0.1
2017-May-24 00:30N 33°24' W 118°22'2 4.6
2017-May-24 00:00N 33°26' W 118°23'3 6.9
2017-May-23 23:30N 33°29' W 118°24'1 1.0
2017-May-23 23:00N 33°29' W 118°24'2 2.7
2017-May-23 22:23N 33°29' W 118°22'2 5.1
2017-May-23 22:00N 33°30' W 118°20'3 6.1
2017-May-23 21:30N 33°32' W 118°18'3 6.3
2017-May-23 21:00N 33°35' W 118°17'3 6.0
2017-May-23 20:30N 33°38' W 118°17'3 5.4
2017-May-23 19:52N 33°42' W 118°16'2 3.2
2017-May-23 19:23N 33°43' W 118°16'1 0.0
2017-May-21 18:48N 33°44' W 118°17'0 1.1
2017-May-21 18:30N 33°44' W 118°16'2 3.5
2017-May-21 18:00N 33°42' W 118°15'2 2.7
2017-May-21 17:22N 33°44' W 118°16'0 0.0
2017-May-21 01:50N 33°44' W 118°17'1 2.0
2017-May-21 01:29N 33°43' W 118°16'3 5.6
2017-May-21 01:00N 33°41' W 118°15'1 1.7
2017-May-21 00:30N 33°42' W 118°15'2 0.1
2017-May-19 19:42N 33°44' W 118°16'0 2.0
2017-May-19 19:30N 33°43' W 118°16'2 4.9
2017-May-19 19:00N 33°41' W 118°14'0 0.4
2017-May-19 18:30N 33°41' W 118°15'2 3.5
2017-May-19 17:55N 33°43' W 118°16'0 0.6
2017-May-19 17:30N 33°43' W 118°16'1 1.5
2017-May-19 16:58N 33°44' W 118°17'0 0.0
2017-May-18 20:07N 33°44' W 118°17'  
Track history (hours):
 
Tides and Currents Weather Stations Pressure Air Temp Water Temp Dewpoint Dewpoint Depression Visibility Wind Speed Wind Dir Waves Ship Positions

Irving Johnson (United States)

Ship's website: http://www.lamitopsail.org/

Owner: Los Angeles Maritime Institute, San Pedro, CA. More information available from US FCC via Universal Licensing System and Coast Guard Vessel Documentation Center.

Last reported at 2017-May-24 20:16 UTC. Time now 2017-May-28 22:18 UTC.
Position N 33°44' W 118°17'.

Type: Ship. MMSI: 369725000.

Date/timePositionNaut miles runAvg speedWind from/ knotsBaromVisibWave heightAir tempDewpointWater temp
2017-May-24 20:16N 33°44' W 118°17'0 0.0
2017-May-24 19:58N 33°44' W 118°17'0 0.0
2017-May-24 19:21N 33°44' W 118°17'0 0.0
2017-May-24 18:57N 33°44' W 118°17'0 0.0
2017-May-24 18:27N 33°44' W 118°17'0 0.7
2017-May-24 18:01N 33°44' W 118°16'2 4.7
2017-May-24 17:31N 33°42' W 118°15'4 7.0
2017-May-24 17:00N 33°38' W 118°16'2 4.8
2017-May-24 16:30N 33°36' W 118°17'4 6.6
2017-May-24 15:56N 33°32' W 118°18'3 6.3
2017-May-24 15:31N 33°30' W 118°19'1 2.7
2017-May-24 15:00N 33°29' W 118°20'1 2.7
2017-May-24 14:30N 33°27' W 118°21'4 3.9
2017-May-24 13:28N 33°24' W 118°22'0 0.0
2017-May-24 12:58N 33°24' W 118°22'0 0.0
2017-May-24 12:22N 33°24' W 118°22'0 0.1
2017-May-24 11:47N 33°24' W 118°22'0 0.2
2017-May-24 11:29N 33°24' W 118°22'0 0.1
2017-May-24 10:59N 33°24' W 118°22'0 0.1
2017-May-24 10:23N 33°24' W 118°22'0 0.0
2017-May-24 09:53N 33°24' W 118°22'0 0.0
2017-May-24 09:25N 33°24' W 118°22'0 0.0
2017-May-24 08:55N 33°24' W 118°22'0 0.0
2017-May-24 08:25N 33°24' W 118°22'0 0.0
2017-May-24 07:49N 33°24' W 118°22'0 0.1
2017-May-24 06:57N 33°24' W 118°22'0 0.0
2017-May-24 06:10N 33°24' W 118°22'0 0.0
2017-May-24 05:52N 33°24' W 118°22'0 0.0
2017-May-24 05:24N 33°24' W 118°22'0 0.0
2017-May-24 04:54N 33°24' W 118°22'0 0.0
2017-May-24 04:30N 33°24' W 118°22'0 0.0
2017-May-24 04:00N 33°24' W 118°22'0 0.0
2017-May-24 01:04N 33°24' W 118°22'0 0.0
2017-May-24 00:44N 33°24' W 118°22'0 0.1
2017-May-24 00:30N 33°24' W 118°22'2 4.6
2017-May-24 00:00N 33°26' W 118°23'3 6.9
2017-May-23 23:30N 33°29' W 118°24'1 1.0
2017-May-23 23:00N 33°29' W 118°24'2 2.7
2017-May-23 22:23N 33°29' W 118°22'2 5.1
2017-May-23 22:00N 33°30' W 118°20'3 6.1
2017-May-23 21:30N 33°32' W 118°18'3 6.3
2017-May-23 21:00N 33°35' W 118°17'3 6.0
2017-May-23 20:30N 33°38' W 118°17'3 5.4
2017-May-23 19:52N 33°42' W 118°16'2 3.2
2017-May-23 19:23N 33°43' W 118°16'1 0.0
2017-May-21 18:48N 33°44' W 118°17'0 1.1
2017-May-21 18:30N 33°44' W 118°16'2 3.5
2017-May-21 18:00N 33°42' W 118°15'2 2.7
2017-May-21 17:22N 33°44' W 118°16'0 0.0
2017-May-21 01:50N 33°44' W 118°17'1 2.0
2017-May-21 01:29N 33°43' W 118°16'3 5.6
2017-May-21 01:00N 33°41' W 118°15'1 1.7
2017-May-21 00:30N 33°42' W 118°15'2 0.1
2017-May-19 19:42N 33°44' W 118°16'0 2.0
2017-May-19 19:30N 33°43' W 118°16'2 4.9
2017-May-19 19:00N 33°41' W 118°14'0 0.4
2017-May-19 18:30N 33°41' W 118°15'2 3.5
2017-May-19 17:55N 33°43' W 118°16'0 0.6
2017-May-19 17:30N 33°43' W 118°16'1 1.5
2017-May-19 16:58N 33°44' W 118°17'0 0.0
2017-May-18 20:07N 33°44' W 118°17'  

Dump ship's entire track history